Lishi, China
Current Conditions -  °F | °C
As of 8:00 PM on Friday 24 Oct 2014 (Local Time) from ZBYN Reporting Station
Haze Haze  
Wind Chill: 55°   Ceiling: Unl
Heat Index: 55°   Visibility: 1.8mi
Dew Point: 43°   Wind: 4mph
Humidity: 63%   Direction: 100°E
Pressure: 29.91"   Gusts: NA
Location:  37.5°N, 111.1°E
Report Text: ZBYN 241200Z 10002MPS 3000 HZ NSC 13/06 Q1013 NOSIG
Loading
Personal Weather Stations






























Interactive Weather Map
Tropical Storm Tracking
New forecast layout! Learn more

10-Day Weather Forecast

Advertisements
Track Severe Weather on mobile